Ellsworth Air Force Base
KRCA : now visible

Airfield :











YOU CAN JOIN US ON...

 
LOGIN :

Register | Disclaimer

   EN    FR    IT 

 









Legend :    VFR   Marginal VFR   IFR   Intensive IFR   Very Intensive IFR
Visi :
Ceiling :
>= 8 km
>= 3000ft
5 to 8 km
1000 to 3000 ft
1500m to 5 km
500 to 1000 ft
800 to 1500m
200 to 500 ft
< 800m
< 200 ft
Symbols :   Thunderstorms  Fog  Heavy snow  Heavy precipitations  Wind > 20 kt






- Airport Elevation : 3276 ft


KRCA - Ellsworth Air Force Base

CURRENT METAR :
  • 231355Z AUTO 34012KT 10SM CLR 09/M04 A3005 RMK AO2 SLP179 T00921037 $

EXPIRED METARs :
  • 231255Z AUTO 34014KT 10SM CLR 07/M05 A3002 RMK AO2 SLP168 T00681046 $
  • 231155Z AUTO 35013KT 10SM CLR 06/M06 A2999 RMK AO2 SLP158 T00631057 10080 20038 52021 $
  • 231055Z AUTO 33012KT 10SM CLR 05/M05 A2997 RMK AO2 SLP151 T00501051 $
  • 230955Z AUTO 33011KT 10SM CLR 07/M05 A2995 RMK AO2 SLP142 T00651055 $

TAF TAF KRCA
Valid from the 23 at 11:00 until the 24 at 17:00 UTC


231100Z 2311/2417 32012G20KT 9999 FEW200 QNH2995INS
BECMG 2314/2315 32020G30KT 9999 FEW050 QNH3002INS
BECMG 2318/2319 34012KT 9999 FEW070 SCT200 QNH3008INS
BECMG 2401/2402 VRB06KT 9999 FEW070 SCT190 QNH3000INS TX16/2322Z TN05/2311Z
KZDV FIR / North America



MET'MAP, your aeronautical weather chart ! - Copyright ORBIFLY December 2007 - Disclaimer

ORBIFLY MET'MAP TEAM :

Programming & Development : Alexandra Zaïnal
Original concept : Baudouin d'Aumeries
Technical & hardware support : Manuel Goepfert
Assistance : Marc-Olivier Méhu




SOURCES & CREDITS :

   NOAA       Earth
Advisory